Time;durP1;ratioP1;P1;durP2;ratioP2;P2;SDS_P1;SDS_P2;PMS_P1;PMS_P2;Temp;Humidity;BMP_temperature;BMP_pressure;BME280_temperature;BME280_humidity;BME280_pressure;Samples;Min_cycle;Max_cycle;Signal;HPM_P1;HPM_P2
2020/12/21 00:00:44;;;;;;;79.63;23.38;;;7.00;99.90;;;;;;5034487;28;20059;-63
2020/12/21 00:03:10;;;;;;;63.83;21.08;;;7.00;99.90;;;;;;5032834;28;20069;-61
2020/12/21 00:05:35;;;;;;;84.85;20.95;;;7.00;99.90;;;;;;5034102;28;20051;-59
2020/12/21 00:08:02;;;;;;;108.53;22.13;;;7.10;99.90;;;;;;5051437;28;20052;-59
2020/12/21 00:10:30;;;;;;;126.72;24.15;;;7.10;99.90;;;;;;5051878;28;20072;-58
2020/12/21 00:12:57;;;;;;;122.10;23.90;;;7.00;99.90;;;;;;5034425;28;20031;-68
2020/12/21 00:15:23;;;;;;;305.33;35.70;;;6.90;99.90;;;;;;5052142;28;20041;-60
2020/12/21 00:17:48;;;;;;;85.22;21.65;;;7.00;99.90;;;;;;5049609;28;20074;-59
2020/12/21 00:20:14;;;;;;;243.27;33.25;;;7.00;99.90;;;;;;5051641;28;20104;-59
2020/12/21 00:22:40;;;;;;;102.72;20.58;;;7.00;99.90;;;;;;5051332;28;20033;-63
2020/12/21 00:25:05;;;;;;;108.80;19.30;;;7.10;99.90;;;;;;5030146;28;20028;-59
2020/12/21 00:27:31;;;;;;;77.85;17.50;;;7.10;99.90;;;;;;5052230;28;20033;-60
2020/12/21 00:29:57;;;;;;;55.45;17.00;;;7.10;99.90;;;;;;5034661;28;20087;-69
2020/12/21 00:32:22;;;;;;;88.68;17.65;;;7.20;99.90;;;;;;5032043;28;20139;-59
2020/12/21 00:34:48;;;;;;;44.70;16.38;;;7.20;99.90;;;;;;5032480;28;20029;-58
2020/12/21 00:37:13;;;;;;;38.97;15.75;;;7.30;99.90;;;;;;5050364;28;20025;-58
2020/12/21 00:39:39;;;;;;;31.90;15.85;;;7.30;99.90;;;;;;5033503;28;20168;-59
2020/12/21 00:42:05;;;;;;;40.67;14.98;;;7.30;99.90;;;;;;5050185;28;20486;-58
2020/12/21 00:44:31;;;;;;;29.30;13.20;;;7.30;99.90;;;;;;5053643;28;20029;-59
2020/12/21 00:46:57;;;;;;;51.88;16.63;;;7.40;99.90;;;;;;5038423;28;20021;-64
2020/12/21 00:49:23;;;;;;;53.85;14.60;;;7.30;99.90;;;;;;5056834;28;20025;-60
2020/12/21 00:51:49;;;;;;;33.20;15.07;;;7.30;99.90;;;;;;5058187;28;20036;-58
2020/12/21 00:54:14;;;;;;;34.63;16.35;;;7.40;99.90;;;;;;5055527;28;20036;-62
2020/12/21 00:56:40;;;;;;;43.38;16.15;;;7.40;99.90;;;;;;5048143;28;20029;-59
2020/12/21 00:59:06;;;;;;;31.70;14.32;;;7.30;99.90;;;;;;5058060;28;20071;-60
2020/12/21 01:01:32;;;;;;;48.83;15.13;;;7.30;99.90;;;;;;5041576;28;20477;-59
2020/12/21 01:04:01;;;;;;;46.30;15.57;;;7.40;99.90;;;;;;5059455;28;20041;-58
2020/12/21 01:06:34;;;;;;;38.70;15.95;;;7.30;99.90;;;;;;5041508;28;20031;-59
2020/12/21 01:09:00;;;;;;;39.70;16.80;;;7.30;99.90;;;;;;5059225;28;20029;-73
2020/12/21 01:11:29;;;;;;;43.80;15.18;;;7.30;99.90;;;;;;5036853;28;20051;-59
2020/12/21 01:13:56;;;;;;;32.42;15.20;;;7.30;99.90;;;;;;5032249;28;20032;-59
2020/12/21 01:16:22;;;;;;;33.30;16.52;;;7.40;99.90;;;;;;5038441;28;20030;-58
2020/12/21 01:18:49;;;;;;;36.60;17.65;;;7.40;99.90;;;;;;5052920;28;20476;-59
2020/12/21 01:21:29;;;;;;;31.42;15.05;;;7.40;99.90;;;;;;5056602;28;20101;-60
2020/12/21 01:23:59;;;;;;;38.63;18.40;;;7.60;99.90;;;;;;5058728;28;20036;-58
2020/12/21 01:26:26;;;;;;;33.40;16.27;;;7.50;99.90;;;;;;5057948;28;20512;-58
2020/12/21 01:28:52;;;;;;;36.10;15.40;;;7.40;99.90;;;;;;5058553;28;20036;-58
2020/12/21 01:31:18;;;;;;;33.30;15.00;;;7.40;99.90;;;;;;5040312;28;20028;-59
2020/12/21 01:33:45;;;;;;;53.40;15.38;;;7.50;99.90;;;;;;5059644;28;20040;-58
2020/12/21 01:36:11;;;;;;;51.80;16.05;;;7.60;99.90;;;;;;5060391;28;20025;-59
2020/12/21 01:38:37;;;;;;;32.40;15.57;;;7.50;99.90;;;;;;5043587;28;20056;-58
2020/12/21 01:41:02;;;;;;;39.20;15.23;;;7.50;99.90;;;;;;5059377;28;20071;-62
2020/12/21 01:43:28;;;;;;;34.92;15.32;;;7.60;99.90;;;;;;5041320;28;20059;-58
2020/12/21 01:45:54;;;;;;;38.05;17.05;;;7.60;99.90;;;;;;5041013;28;20032;-59
2020/12/21 01:48:20;;;;;;;33.33;15.68;;;7.60;99.90;;;;;;5058253;28;20075;-58
2020/12/21 01:50:46;;;;;;;57.72;16.38;;;7.40;99.90;;;;;;5058745;28;20104;-59
2020/12/21 01:53:12;;;;;;;24.35;13.52;;;7.30;99.90;;;;;;5040213;28;20120;-58
2020/12/21 01:55:40;;;;;;;87.70;15.88;;;7.40;99.90;;;;;;5058395;28;20041;-59
2020/12/21 01:58:06;;;;;;;42.10;15.70;;;7.40;99.90;;;;;;5054801;28;20029;-59
2020/12/21 02:00:32;;;;;;;53.15;14.50;;;7.30;99.90;;;;;;5055426;28;20028;-58
2020/12/21 02:02:58;;;;;;;43.58;14.73;;;7.30;99.90;;;;;;5037894;28;20045;-59
2020/12/21 02:05:24;;;;;;;36.03;13.00;;;7.30;99.90;;;;;;5055681;28;20037;-58
2020/12/21 02:07:50;;;;;;;37.50;14.93;;;7.30;99.90;;;;;;5038668;28;20506;-59
2020/12/21 02:10:17;;;;;;;38.17;15.52;;;7.30;99.90;;;;;;5055279;28;20065;-59
2020/12/21 02:12:42;;;;;;;25.98;13.07;;;7.20;99.90;;;;;;5055117;28;20052;-58
2020/12/21 02:15:08;;;;;;;27.92;14.27;;;7.30;99.90;;;;;;5054580;28;20025;-59
2020/12/21 02:17:33;;;;;;;45.42;15.00;;;7.30;99.90;;;;;;5037329;28;20040;-58
2020/12/21 02:19:59;;;;;;;30.42;14.55;;;7.30;99.90;;;;;;5055253;28;20028;-58
2020/12/21 02:22:25;;;;;;;31.67;15.38;;;7.30;99.90;;;;;;5036515;28;20379;-58
2020/12/21 02:24:50;;;;;;;29.88;14.13;;;7.40;99.90;;;;;;5055156;28;20032;-58
2020/12/21 02:27:16;;;;;;;30.20;13.60;;;7.40;99.90;;;;;;5054682;28;20382;-59
2020/12/21 02:29:41;;;;;;;91.40;20.10;;;7.40;99.90;;;;;;5054576;28;20472;-58
2020/12/21 02:32:07;;;;;;;34.95;14.63;;;7.30;99.90;;;;;;5054624;28;20374;-59
2020/12/21 02:34:33;;;;;;;32.05;15.15;;;7.30;99.90;;;;;;5055125;28;20029;-59
2020/12/21 02:36:59;;;;;;;28.85;16.30;;;7.40;99.90;;;;;;5037575;28;20029;-59
2020/12/21 02:39:24;;;;;;;87.90;17.38;;;7.40;99.90;;;;;;5054476;28;20055;-59
2020/12/21 02:41:51;;;;;;;39.97;14.68;;;7.30;99.90;;;;;;5037585;28;20029;-58
2020/12/21 02:44:17;;;;;;;57.97;15.60;;;7.30;99.90;;;;;;5054514;28;20051;-58
2020/12/21 02:46:44;;;;;;;32.58;16.13;;;7.20;99.90;;;;;;5054692;28;20454;-58
2020/12/21 02:49:10;;;;;;;30.77;15.48;;;7.20;99.90;;;;;;5036355;28;20470;-60
2020/12/21 02:51:36;;;;;;;50.78;16.35;;;7.30;99.90;;;;;;5054939;28;20029;-59
2020/12/21 02:54:02;;;;;;;103.72;19.77;;;7.30;99.90;;;;;;5054063;28;20470;-58
2020/12/21 02:56:27;;;;;;;43.17;17.35;;;7.30;99.90;;;;;;5035915;28;20540;-59
2020/12/21 02:58:53;;;;;;;80.47;18.17;;;7.30;99.90;;;;;;5036491;28;20029;-60
2020/12/21 03:01:19;;;;;;;33.67;16.02;;;7.30;99.90;;;;;;5053481;28;20033;-58
2020/12/21 03:03:44;;;;;;;34.00;15.93;;;7.30;99.90;;;;;;5054295;28;20071;-59
2020/12/21 03:06:10;;;;;;;61.30;17.90;;;7.40;99.90;;;;;;5035960;28;20021;-59
2020/12/21 03:08:35;;;;;;;30.90;15.60;;;7.40;99.90;;;;;;5053241;28;20045;-58
2020/12/21 03:11:01;;;;;;;56.47;17.40;;;7.30;99.90;;;;;;5054088;28;20025;-58
2020/12/21 03:13:26;;;;;;;47.05;16.73;;;7.30;99.90;;;;;;5053267;28;20478;-59
2020/12/21 03:15:52;;;;;;;81.45;19.23;;;7.30;99.90;;;;;;5036129;28;20025;-58
2020/12/21 03:18:18;;;;;;;32.70;16.73;;;7.20;99.90;;;;;;5053121;28;20108;-58
2020/12/21 03:20:44;;;;;;;37.20;16.85;;;7.30;99.90;;;;;;5053827;28;20032;-57
2020/12/21 03:23:09;;;;;;;43.13;17.42;;;7.40;99.90;;;;;;5035465;28;20397;-59
2020/12/21 03:25:35;;;;;;;70.05;17.65;;;7.40;99.90;;;;;;5053991;28;20017;-59
2020/12/21 03:28:01;;;;;;;31.40;16.70;;;7.40;99.90;;;;;;5054232;28;20035;-58
2020/12/21 03:30:26;;;;;;;38.70;16.55;;;7.40;99.90;;;;;;5052898;28;20127;-58
2020/12/21 03:32:52;;;;;;;37.83;16.55;;;7.40;99.90;;;;;;5035744;28;20039;-59
2020/12/21 03:35:18;;;;;;;37.55;16.58;;;7.40;99.90;;;;;;5052935;28;20028;-59
2020/12/21 03:37:44;;;;;;;32.38;16.00;;;7.40;99.90;;;;;;5035955;28;20032;-63
2020/12/21 03:40:10;;;;;;;40.42;15.68;;;7.40;99.90;;;;;;5035475;28;20025;-62
2020/12/21 03:42:36;;;;;;;48.00;17.48;;;7.40;99.90;;;;;;5053391;28;20112;-58
2020/12/21 03:45:03;;;;;;;42.75;18.02;;;7.40;99.90;;;;;;5053566;28;20025;-59
2020/12/21 03:47:29;;;;;;;61.80;19.30;;;7.30;99.90;;;;;;5053251;28;20028;-58
2020/12/21 03:49:54;;;;;;;42.20;16.67;;;7.40;99.90;;;;;;5053211;28;20025;-59
2020/12/21 03:52:20;;;;;;;53.83;18.33;;;7.40;99.90;;;;;;5052587;28;20021;-58
2020/12/21 03:54:45;;;;;;;43.42;18.00;;;7.40;99.90;;;;;;5053232;28;20524;-59
2020/12/21 03:57:11;;;;;;;47.70;18.83;;;7.40;99.90;;;;;;5052965;28;20079;-61
2020/12/21 03:59:37;;;;;;;40.58;19.23;;;7.40;99.90;;;;;;5036762;28;20441;-58
2020/12/21 04:02:03;;;;;;;50.42;19.75;;;7.40;99.90;;;;;;5054079;28;20036;-63
2020/12/21 04:04:28;;;;;;;185.70;23.70;;;7.50;99.90;;;;;;5053763;28;20029;-59
2020/12/21 04:06:54;;;;;;;155.52;25.63;;;7.40;99.90;;;;;;5054267;28;20048;-58
2020/12/21 04:09:20;;;;;;;66.38;20.77;;;7.40;99.90;;;;;;5035342;28;20021;-58
2020/12/21 04:11:45;;;;;;;78.00;21.13;;;7.30;99.90;;;;;;5054699;28;20402;-59
2020/12/21 04:14:11;;;;;;;54.17;19.23;;;7.30;99.90;;;;;;5053213;28;20501;-71
2020/12/21 04:16:38;;;;;;;57.53;19.95;;;7.40;99.90;;;;;;5053791;28;20029;-58
2020/12/21 04:19:04;;;;;;;66.93;19.95;;;7.30;99.90;;;;;;5053540;28;20025;-58
2020/12/21 04:21:30;;;;;;;61.17;19.38;;;7.30;99.90;;;;;;5052950;28;20036;-58
2020/12/21 04:23:56;;;;;;;81.90;22.42;;;7.30;99.90;;;;;;5053106;28;20033;-59
2020/12/21 04:26:21;;;;;;;111.75;25.80;;;7.30;99.90;;;;;;5052725;28;20378;-59
2020/12/21 04:28:47;;;;;;;87.75;23.92;;;7.30;99.90;;;;;;5053418;28;20385;-59
2020/12/21 04:31:13;;;;;;;81.53;22.98;;;7.30;99.90;;;;;;5054050;28;20033;-59
2020/12/21 04:33:39;;;;;;;68.82;22.35;;;7.40;99.90;;;;;;5054484;28;20033;-63
2020/12/21 04:36:12;;;;;;;65.13;21.15;;;7.40;99.90;;;;;;5054162;28;20029;-61
2020/12/21 04:38:42;;;;;;;60.67;22.70;;;7.40;99.90;;;;;;5035972;28;20121;-61
2020/12/21 04:41:09;;;;;;;65.40;23.33;;;7.40;99.90;;;;;;5054291;28;20036;-61
2020/12/21 04:43:35;;;;;;;48.35;20.45;;;7.40;99.90;;;;;;5052921;28;20095;-62
2020/12/21 04:46:05;;;;;;;49.85;20.60;;;7.50;99.90;;;;;;5053453;28;20033;-59
2020/12/21 04:48:31;;;;;;;51.67;22.73;;;7.50;99.90;;;;;;5052642;28;20540;-58
2020/12/21 04:50:57;;;;;;;55.53;22.38;;;7.50;99.90;;;;;;5053640;28;20025;-59
2020/12/21 04:53:23;;;;;;;61.42;23.33;;;7.50;99.90;;;;;;5052459;28;20132;-58
2020/12/21 04:55:49;;;;;;;57.80;23.90;;;7.40;99.90;;;;;;5052681;28;20474;-58
2020/12/21 04:58:15;;;;;;;55.72;24.65;;;7.50;99.90;;;;;;5052344;28;20024;-59
2020/12/21 05:00:41;;;;;;;50.38;21.38;;;7.50;99.90;;;;;;5053102;28;20075;-59
2020/12/21 05:03:07;;;;;;;51.50;23.60;;;7.60;99.90;;;;;;5034863;28;20040;-60
2020/12/21 05:05:34;;;;;;;49.03;21.85;;;7.60;99.90;;;;;;5034243;28;20462;-64
2020/12/21 05:08:07;;;;;;;46.90;20.77;;;7.60;99.90;;;;;;5052364;28;20493;-61
2020/12/21 05:10:34;;;;;;;42.78;21.13;;;7.70;99.90;;;;;;5052194;28;20028;-59
2020/12/21 05:13:01;;;;;;;46.47;21.85;;;7.70;99.90;;;;;;5052681;28;20021;-58
2020/12/21 05:15:26;;;;;;;44.33;20.42;;;7.70;99.90;;;;;;5051760;28;20423;-59
2020/12/21 05:18:05;;;;;;;44.38;19.83;;;7.70;99.90;;;;;;5052848;28;20029;-59
2020/12/21 05:20:32;;;;;;;41.90;20.40;;;7.70;99.90;;;;;;5051958;28;20025;-58
2020/12/21 05:22:58;;;;;;;38.25;18.80;;;7.70;99.90;;;;;;5034706;28;20406;-58
2020/12/21 05:25:23;;;;;;;36.83;17.05;;;7.70;99.90;;;;;;5052526;28;20036;-58
2020/12/21 05:27:49;;;;;;;39.03;17.35;;;7.70;99.90;;;;;;5053646;28;20017;-58
2020/12/21 05:30:15;;;;;;;36.45;16.77;;;7.60;99.90;;;;;;5053174;28;20051;-64
2020/12/21 05:32:41;;;;;;;27.38;14.70;;;7.60;99.90;;;;;;5038372;28;20041;-59
2020/12/21 05:35:09;;;;;;;31.48;15.88;;;7.60;99.90;;;;;;5056113;28;20029;-58
2020/12/21 05:37:37;;;;;;;32.35;16.48;;;7.70;99.90;;;;;;5055630;28;20021;-58
2020/12/21 05:40:04;;;;;;;31.88;15.98;;;7.70;99.90;;;;;;5038414;28;20051;-59
2020/12/21 05:42:29;;;;;;;33.78;18.38;;;7.60;99.90;;;;;;5055533;28;20029;-59
2020/12/21 05:44:56;;;;;;;39.70;16.88;;;7.60;99.90;;;;;;5038531;28;20025;-58
2020/12/21 05:47:26;;;;;;;33.28;17.63;;;7.60;99.90;;;;;;5055041;28;20029;-58
2020/12/21 05:49:59;;;;;;;38.92;18.33;;;7.50;99.90;;;;;;5056520;28;20025;-60
2020/12/21 05:52:33;;;;;;;40.35;19.63;;;7.50;99.90;;;;;;5055792;28;20044;-65
2020/12/21 05:55:07;;;;;;;36.60;18.23;;;7.50;99.90;;;;;;5056568;28;20490;-59
2020/12/21 05:57:33;;;;;;;35.92;17.88;;;7.50;99.90;;;;;;5038041;28;20025;-58
2020/12/21 05:59:59;;;;;;;34.72;17.50;;;7.40;99.90;;;;;;5056326;28;20040;-59
2020/12/21 06:02:26;;;;;;;35.88;17.15;;;7.50;99.90;;;;;;5038283;28;20052;-58
2020/12/21 06:04:59;;;;;;;31.10;14.85;;;7.40;99.90;;;;;;5037694;28;20485;-59
2020/12/21 06:07:28;;;;;;;33.78;16.63;;;7.30;99.90;;;;;;5036895;28;20040;-58
2020/12/21 06:09:57;;;;;;;30.58;16.23;;;7.30;99.90;;;;;;5018081;28;20033;-62
2020/12/21 06:12:24;;;;;;;40.45;16.95;;;7.30;99.90;;;;;;5034900;28;20033;-58
2020/12/21 06:14:53;;;;;;;34.13;15.57;;;7.20;99.90;;;;;;5018115;28;20382;-58
2020/12/21 06:17:19;;;;;;;29.33;15.02;;;7.20;99.90;;;;;;5034943;28;20414;-73
2020/12/21 06:19:45;;;;;;;29.45;14.90;;;7.30;99.90;;;;;;5034921;28;20057;-60
2020/12/21 06:22:10;;;;;;;30.05;15.43;;;7.20;99.90;;;;;;5017453;28;20486;-58
2020/12/21 06:24:39;;;;;;;38.17;18.17;;;7.20;99.90;;;;;;5034816;28;20025;-59
2020/12/21 06:27:15;;;;;;;38.33;18.20;;;7.10;99.90;;;;;;5035502;28;20518;-59
2020/12/21 06:29:41;;;;;;;31.95;16.67;;;7.10;99.90;;;;;;5035242;28;20025;-58
2020/12/21 06:32:08;;;;;;;32.03;18.60;;;7.00;99.90;;;;;;5035242;28;20030;-58
2020/12/21 06:34:36;;;;;;;33.17;17.02;;;7.00;99.90;;;;;;5034530;28;20036;-58
2020/12/21 06:37:16;;;;;;;34.70;16.63;;;7.10;99.90;;;;;;5035068;28;20492;-61
2020/12/21 06:39:42;;;;;;;35.42;17.17;;;7.00;99.90;;;;;;5035030;28;20036;-59
2020/12/21 06:42:13;;;;;;;33.55;17.13;;;7.10;99.90;;;;;;5017818;28;20060;-59
2020/12/21 06:44:40;;;;;;;35.10;16.45;;;7.20;99.90;;;;;;5035884;28;20362;-58
2020/12/21 06:47:11;;;;;;;31.27;15.88;;;7.10;99.90;;;;;;5035935;28;20058;-57
2020/12/21 06:49:37;;;;;;;29.98;15.85;;;7.10;99.90;;;;;;5035426;28;20022;-58
2020/12/21 06:52:03;;;;;;;29.77;15.80;;;7.10;99.90;;;;;;5036756;28;20029;-59
2020/12/21 06:54:29;;;;;;;34.08;16.67;;;7.20;99.90;;;;;;5035150;28;20029;-60
2020/12/21 06:56:55;;;;;;;31.42;16.27;;;7.30;99.90;;;;;;5036430;28;20482;-59
2020/12/21 06:59:22;;;;;;;35.92;16.67;;;7.30;99.90;;;;;;5035169;28;20033;-72
2020/12/21 07:01:50;;;;;;;32.22;16.45;;;7.30;99.90;;;;;;5036592;28;20544;-60
2020/12/21 07:04:20;;;;;;;36.35;18.13;;;7.30;99.90;;;;;;5036601;28;20493;-62
2020/12/21 07:06:47;;;;;;;32.40;16.67;;;7.30;99.90;;;;;;5035480;28;20049;-58
2020/12/21 07:09:14;;;;;;;33.67;18.20;;;7.30;99.90;;;;;;5036483;28;20029;-60
2020/12/21 07:11:41;;;;;;;32.63;16.15;;;7.30;99.90;;;;;;5018234;28;20087;-59
2020/12/21 07:14:11;;;;;;;34.10;17.98;;;7.30;99.90;;;;;;5036544;28;20083;-58
2020/12/21 07:16:37;;;;;;;34.78;18.05;;;7.30;99.90;;;;;;5034557;28;20017;-59
2020/12/21 07:19:03;;;;;;;36.45;17.55;;;7.20;99.90;;;;;;5046559;28;20056;-59
2020/12/21 07:21:30;;;;;;;34.35;18.73;;;7.40;99.90;;;;;;5025006;28;20049;-58
2020/12/21 07:23:59;;;;;;;37.60;17.90;;;7.40;99.90;;;;;;5044944;28;20448;-62
2020/12/21 07:26:26;;;;;;;43.20;17.67;;;7.40;99.90;;;;;;5024759;28;20082;-73
2020/12/21 07:28:52;;;;;;;31.05;17.88;;;8.40;99.90;;;;;;5047249;28;20024;-60
2020/12/21 07:31:19;;;;;;;38.30;19.35;;;8.30;99.90;;;;;;5035385;28;20037;-58
2020/12/21 07:33:50;;;;;;;35.95;19.00;;;8.00;99.90;;;;;;5015896;28;20326;-62
2020/12/21 07:36:17;;;;;;;33.95;17.52;;;7.70;99.90;;;;;;5019553;28;20116;-60
2020/12/21 07:38:44;;;;;;;33.95;18.42;;;7.50;99.90;;;;;;5042106;28;21137;-65
2020/12/21 07:41:10;;;;;;;36.42;18.50;;;7.50;99.90;;;;;;5043314;28;20017;-60
2020/12/21 07:43:41;;;;;;;33.97;18.50;;;7.50;99.90;;;;;;5042476;28;20032;-60
2020/12/21 07:46:24;;;;;;;41.65;19.25;;;7.50;99.90;;;;;;5026417;28;20025;-59
2020/12/21 07:48:51;;;;;;;37.10;19.00;;;7.50;99.90;;;;;;5042518;28;20025;-60
2020/12/21 07:51:21;;;;;;;38.10;19.70;;;7.50;99.90;;;;;;5043843;28;20504;-58
2020/12/21 07:53:47;;;;;;;33.78;18.85;;;7.50;99.90;;;;;;5022693;28;20017;-59
2020/12/21 07:56:17;;;;;;;38.25;20.35;;;7.40;99.90;;;;;;5045345;28;20374;-64
2020/12/21 07:58:44;;;;;;;37.40;19.40;;;7.40;99.90;;;;;;5034157;28;20036;-60
2020/12/21 08:01:10;;;;;;;37.08;20.00;;;7.40;99.90;;;;;;5053711;28;20029;-58
2020/12/21 08:03:38;;;;;;;36.22;18.95;;;7.40;99.90;;;;;;5051839;28;20083;-62
2020/12/21 08:06:12;;;;;;;38.45;21.50;;;7.40;99.90;;;;;;5052221;28;20028;-57
2020/12/21 08:08:39;;;;;;;37.65;20.17;;;7.40;99.90;;;;;;5033175;28;20060;-57
2020/12/21 08:11:12;;;;;;;41.00;20.65;;;7.50;99.90;;;;;;5052595;28;20029;-64
2020/12/21 08:13:38;;;;;;;39.53;21.08;;;7.40;99.90;;;;;;5052627;28;20033;-60
2020/12/21 08:16:08;;;;;;;37.05;20.25;;;7.40;99.90;;;;;;5052969;28;20036;-58
2020/12/21 08:18:34;;;;;;;35.55;19.30;;;7.40;99.90;;;;;;5047286;28;20037;-59
2020/12/21 08:20:59;;;;;;;33.70;19.58;;;7.40;99.90;;;;;;5052622;28;20105;-59
2020/12/21 08:23:27;;;;;;;33.97;19.73;;;7.50;99.90;;;;;;5034159;28;20039;-58
2020/12/21 08:25:53;;;;;;;37.53;19.90;;;7.50;99.90;;;;;;5034401;28;20029;-58
2020/12/21 08:28:37;;;;;;;40.15;19.83;;;7.50;99.90;;;;;;5034478;28;20179;-60
2020/12/21 08:31:11;;;;;;;41.65;19.50;;;7.50;99.90;;;;;;5052161;28;20417;-59
2020/12/21 08:33:38;;;;;;;39.58;19.73;;;7.50;99.90;;;;;;5034081;28;20029;-58
2020/12/21 08:36:20;;;;;;;35.65;19.90;;;7.60;99.90;;;;;;5052477;28;20024;-59
2020/12/21 08:38:46;;;;;;;38.17;19.63;;;7.70;99.90;;;;;;5052220;28;20028;-58
2020/12/21 08:41:12;;;;;;;37.35;20.92;;;7.70;99.90;;;;;;5051742;28;20048;-59
2020/12/21 08:43:39;;;;;;;37.45;20.70;;;7.70;99.90;;;;;;4999886;28;20144;-62
2020/12/21 08:46:12;;;;;;;38.42;21.27;;;7.80;99.90;;;;;;5034689;28;20017;-58
2020/12/21 08:48:42;;;;;;;38.92;21.58;;;7.70;99.90;;;;;;5033808;28;20033;-61
2020/12/21 08:51:09;;;;;;;36.33;19.90;;;7.70;99.90;;;;;;5052061;28;20033;-59
2020/12/21 08:53:35;;;;;;;38.65;19.98;;;7.80;99.90;;;;;;5033659;28;20033;-59
2020/12/21 08:56:10;;;;;;;34.47;19.27;;;7.80;99.90;;;;;;5052508;28;20377;-58
2020/12/21 08:58:35;;;;;;;37.22;18.48;;;7.80;99.90;;;;;;5033966;28;20057;-59
2020/12/21 09:01:08;;;;;;;33.03;19.38;;;7.80;99.90;;;;;;5034245;28;20480;-60
2020/12/21 09:03:35;;;;;;;32.05;18.80;;;7.80;99.90;;;;;;5051764;28;20111;-61
2020/12/21 09:06:01;;;;;;;29.75;18.35;;;7.80;99.90;;;;;;5035989;28;20029;-59
2020/12/21 09:08:27;;;;;;;36.53;18.65;;;7.70;99.90;;;;;;5056133;28;20501;-60
2020/12/21 09:10:53;;;;;;;36.35;19.58;;;7.80;99.90;;;;;;5056365;28;20028;-59
2020/12/21 09:13:18;;;;;;;32.08;17.33;;;7.80;99.90;;;;;;5057046;28;20033;-65
2020/12/21 09:15:44;;;;;;;28.90;16.10;;;7.70;99.90;;;;;;5038036;28;20028;-60
2020/12/21 09:18:10;;;;;;;26.77;15.43;;;7.70;99.90;;;;;;5044648;28;20021;-59
2020/12/21 09:20:36;;;;;;;29.13;15.60;;;7.70;99.90;;;;;;5034472;28;20100;-59
2020/12/21 09:23:01;;;;;;;26.85;15.07;;;7.70;99.90;;;;;;5018148;28;20029;-63
2020/12/21 09:25:27;;;;;;;30.23;17.65;;;8.60;99.90;;;;;;5054377;28;20031;-62
2020/12/21 09:27:52;;;;;;;31.10;17.42;;;8.80;99.90;;;;;;5055738;28;20032;-60
2020/12/21 09:30:18;;;;;;;30.27;17.85;;;8.90;99.90;;;;;;5044929;28;20402;-62
2020/12/21 09:32:44;;;;;;;35.35;18.52;;;8.40;99.90;;;;;;5028241;28;20051;-59
2020/12/21 09:35:11;;;;;;;29.65;17.73;;;8.30;99.90;;;;;;5056278;28;20502;-58
2020/12/21 09:37:37;;;;;;;35.15;18.15;;;8.20;99.90;;;;;;5055123;28;20029;-58
2020/12/21 09:40:02;;;;;;;29.17;17.55;;;8.10;99.90;;;;;;5055486;28;20170;-58
2020/12/21 09:42:28;;;;;;;32.17;17.02;;;8.20;99.90;;;;;;5055095;28;20047;-59
2020/12/21 09:44:54;;;;;;;27.27;16.50;;;8.20;99.90;;;;;;5054497;28;20025;-58
2020/12/21 09:47:19;;;;;;;25.40;14.45;;;8.20;99.90;;;;;;5037423;28;20032;-59
2020/12/21 09:49:45;;;;;;;21.67;14.88;;;8.00;99.90;;;;;;5054376;28;20100;-59
2020/12/21 09:52:11;;;;;;;27.83;14.77;;;8.00;99.90;;;;;;5055558;28;20121;-58
2020/12/21 09:54:36;;;;;;;24.77;15.73;;;8.00;99.90;;;;;;5035213;28;20046;-59
2020/12/21 09:57:02;;;;;;;25.83;14.57;;;7.80;99.90;;;;;;5037213;28;20459;-60
2020/12/21 09:59:28;;;;;;;21.98;13.13;;;7.90;99.90;;;;;;5055385;28;20029;-60
2020/12/21 10:01:54;;;;;;;22.50;11.73;;;8.00;99.90;;;;;;5054230;28;20096;-61
2020/12/21 10:04:19;;;;;;;18.13;12.65;;;7.70;99.90;;;;;;5037140;28;20045;-63
2020/12/21 10:06:51;;;;;;;16.50;11.00;;;7.70;99.90;;;;;;5054434;28;20049;-60
2020/12/21 10:09:17;;;;;;;26.10;12.15;;;7.60;99.90;;;;;;5049917;28;20095;-63
2020/12/21 10:11:43;;;;;;;21.88;10.82;;;7.60;99.90;;;;;;5035687;28;20409;-59
2020/12/21 10:14:09;;;;;;;20.13;10.68;;;7.60;99.90;;;;;;5037282;28;20124;-60
2020/12/21 10:16:34;;;;;;;17.77;10.02;;;7.60;99.90;;;;;;5053976;28;20025;-68
2020/12/21 10:19:00;;;;;;;16.52;10.98;;;7.60;99.90;;;;;;5054113;28;20454;-59
2020/12/21 10:21:26;;;;;;;12.15;8.07;;;7.70;99.90;;;;;;5036570;28;20063;-59
2020/12/21 10:23:52;;;;;;;10.57;8.05;;;7.50;99.90;;;;;;5052474;28;20044;-59
2020/12/21 10:26:18;;;;;;;14.30;9.10;;;7.50;99.90;;;;;;5035014;28;20482;-58
2020/12/21 10:28:43;;;;;;;14.70;9.10;;;7.50;99.90;;;;;;5053550;28;20203;-59
2020/12/21 10:31:09;;;;;;;18.23;8.60;;;7.50;99.90;;;;;;5033032;28;20073;-59
2020/12/21 10:33:34;;;;;;;13.35;8.43;;;7.50;99.90;;;;;;5040529;28;20041;-65
2020/12/21 10:36:00;;;;;;;14.65;9.05;;;7.60;99.90;;;;;;5051477;28;20061;-59
2020/12/21 10:38:26;;;;;;;15.73;8.38;;;7.60;99.90;;;;;;5036398;28;20461;-59
2020/12/21 10:40:51;;;;;;;16.20;7.88;;;7.60;99.90;;;;;;5036448;28;20028;-60
2020/12/21 10:43:17;;;;;;;11.00;7.88;;;7.80;99.90;;;;;;5054225;28;20032;-59
2020/12/21 10:45:43;;;;;;;16.17;8.60;;;7.70;99.90;;;;;;5054066;28;20051;-59
2020/12/21 10:48:08;;;;;;;13.43;8.15;;;7.70;99.90;;;;;;5055568;28;20466;-59
2020/12/21 10:50:34;;;;;;;11.13;8.27;;;7.60;99.90;;;;;;5037289;28;20027;-61
2020/12/21 10:53:00;;;;;;;14.98;7.68;;;7.60;99.90;;;;;;5055219;28;20033;-59
2020/12/21 10:55:26;;;;;;;16.55;8.10;;;7.70;99.90;;;;;;5055411;28;20025;-59
2020/12/21 10:57:52;;;;;;;12.10;6.82;;;7.70;99.90;;;;;;5054907;28;20025;-59
2020/12/21 11:00:17;;;;;;;11.65;7.78;;;7.80;99.90;;;;;;5054920;28;20375;-58
2020/12/21 11:02:43;;;;;;;12.30;6.97;;;7.80;99.90;;;;;;5036125;28;20041;-61
2020/12/21 11:05:10;;;;;;;14.05;7.90;;;7.90;99.90;;;;;;5036769;28;20064;-58
2020/12/21 11:07:36;;;;;;;11.35;7.40;;;7.90;99.90;;;;;;5035962;28;20102;-72
2020/12/21 11:10:05;;;;;;;19.90;8.52;;;7.90;99.90;;;;;;5036414;28;20191;-59
2020/12/21 11:12:30;;;;;;;11.15;8.23;;;7.80;99.90;;;;;;5036474;28;20036;-58
2020/12/21 11:14:56;;;;;;;12.95;8.00;;;7.90;99.90;;;;;;5054139;28;20303;-59
2020/12/21 11:17:21;;;;;;;13.10;7.78;;;7.90;99.90;;;;;;5054480;28;20032;-58
2020/12/21 11:19:47;;;;;;;14.88;8.52;;;8.00;99.90;;;;;;5035610;28;20033;-59
2020/12/21 11:22:13;;;;;;;12.68;7.60;;;7.90;99.90;;;;;;5053726;28;20024;-59
2020/12/21 11:24:39;;;;;;;14.15;8.52;;;8.00;99.90;;;;;;5053008;28;20489;-60
2020/12/21 11:27:05;;;;;;;14.57;7.90;;;8.10;99.90;;;;;;5054340;28;20029;-59
2020/12/21 11:29:30;;;;;;;13.07;7.18;;;8.20;99.90;;;;;;5035692;28;20025;-60
2020/12/21 11:31:56;;;;;;;10.00;6.75;;;8.10;99.90;;;;;;5054705;28;20025;-60
2020/12/21 11:34:22;;;;;;;12.55;7.38;;;8.10;99.90;;;;;;5037201;28;20466;-58
2020/12/21 11:36:47;;;;;;;13.73;8.40;;;8.10;99.90;;;;;;5053230;28;20033;-60
2020/12/21 11:39:13;;;;;;;14.02;8.27;;;8.20;99.90;;;;;;5053282;28;20036;-60
2020/12/21 11:41:39;;;;;;;10.55;8.07;;;8.20;99.90;;;;;;5053555;28;20326;-62
2020/12/21 11:44:04;;;;;;;10.88;7.88;;;8.20;99.90;;;;;;5035655;28;20040;-59
2020/12/21 11:46:32;;;;;;;11.02;7.65;;;8.40;99.90;;;;;;5035631;28;20029;-59
2020/12/21 11:48:58;;;;;;;11.98;7.70;;;8.30;99.90;;;;;;5052934;28;20031;-59
2020/12/21 11:51:24;;;;;;;12.90;8.38;;;8.40;99.90;;;;;;5053785;28;20029;-61
2020/12/21 11:53:50;;;;;;;11.90;7.90;;;8.40;99.90;;;;;;5034681;28;20090;-58
2020/12/21 11:56:19;;;;;;;12.05;8.48;;;8.60;99.90;;;;;;5052991;28;20036;-59
2020/12/21 11:58:46;;;;;;;9.35;7.18;;;8.60;99.90;;;;;;5053165;28;20021;-60
2020/12/21 12:01:11;;;;;;;10.75;7.45;;;8.70;99.90;;;;;;5035193;28;20060;-60
2020/12/21 12:03:37;;;;;;;9.05;7.40;;;8.90;99.90;;;;;;5035488;28;20513;-62
2020/12/21 12:06:03;;;;;;;12.73;7.82;;;9.00;99.90;;;;;;5052845;28;20029;-61
2020/12/21 12:08:29;;;;;;;10.98;7.57;;;9.00;99.90;;;;;;5053086;28;20110;-59
2020/12/21 12:10:54;;;;;;;10.50;7.20;;;8.90;99.90;;;;;;5052619;28;20459;-59
2020/12/21 12:13:20;;;;;;;17.00;8.73;;;8.70;99.90;;;;;;5053500;28;20527;-59
2020/12/21 12:15:48;;;;;;;13.00;8.23;;;8.70;99.90;;;;;;5052408;28;20024;-59
2020/12/21 12:18:15;;;;;;;13.48;8.00;;;8.70;99.90;;;;;;5053447;28;20029;-59
2020/12/21 12:20:41;;;;;;;12.15;7.20;;;8.70;99.90;;;;;;5035089;28;20055;-76
2020/12/21 12:23:06;;;;;;;16.60;7.72;;;8.60;99.90;;;;;;5035270;28;20032;-59
2020/12/21 12:25:32;;;;;;;12.15;7.35;;;8.60;99.90;;;;;;5052530;28;20032;-60
2020/12/21 12:27:59;;;;;;;13.15;7.70;;;8.70;99.90;;;;;;5052339;28;20098;-60
2020/12/21 12:30:25;;;;;;;11.63;7.13;;;8.70;99.90;;;;;;5053574;28;20059;-59
2020/12/21 12:32:50;;;;;;;10.20;7.75;;;8.70;99.90;;;;;;5052847;28;20464;-59
2020/12/21 12:35:16;;;;;;;14.60;8.38;;;8.70;99.90;;;;;;5053603;28;20025;-59